Time;durP1;ratioP1;P1;durP2;ratioP2;P2;SDS_P1;SDS_P2;PMS_P1;PMS_P2;Temp;Humidity;BMP_temperature;BMP_pressure;BME280_temperature;BME280_humidity;BME280_pressure;Samples;Min_cycle;Max_cycle;Signal;HPM_P1;HPM_P2
2022/05/15 00:01:18;;;;;;;6.07;2.30;;;;;;;16.65;66.83;100796.03;5058936;28;20044;-86
2022/05/15 00:03:44;;;;;;;7.68;2.20;;;;;;;16.62;66.33;100791.00;5058718;28;20017;-86
2022/05/15 00:06:09;;;;;;;5.35;2.00;;;;;;;16.51;66.65;100780.47;5048481;28;20468;-86
2022/05/15 00:08:38;;;;;;;8.07;1.95;;;;;;;16.44;66.85;100766.94;5055845;28;20021;-86
2022/05/15 00:11:04;;;;;;;6.35;2.08;;;;;;;16.24;66.85;100766.03;5056935;28;20020;-86
2022/05/15 00:13:29;;;;;;;7.78;2.15;;;;;;;16.20;67.83;100775.19;5056317;28;20034;-86
2022/05/15 00:15:55;;;;;;;5.68;2.03;;;;;;;16.24;67.81;100760.72;5056437;28;20017;-86
2022/05/15 00:18:22;;;;;;;11.35;2.45;;;;;;;16.20;67.77;100749.53;5042165;28;20028;-86
2022/05/15 00:20:49;;;;;;;8.77;2.08;;;;;;;16.20;68.97;100738.94;5034574;28;20083;-86
2022/05/15 00:23:16;;;;;;;9.02;2.97;;;;;;;16.14;68.84;100734.19;5034774;28;20025;-87
2022/05/15 00:25:42;;;;;;;7.10;2.35;;;;;;;16.03;69.72;100736.91;5034117;28;20037;-86
2022/05/15 00:28:08;;;;;;;9.45;3.17;;;;;;;15.91;70.93;100743.25;5034702;28;20029;-86
2022/05/15 00:30:35;;;;;;;6.40;1.65;;;;;;;15.81;68.95;100744.03;5035005;28;20018;-86
2022/05/15 00:33:00;;;;;;;7.57;1.50;;;;;;;15.72;68.25;100747.44;5032905;28;20036;-86
2022/05/15 00:35:26;;;;;;;2.88;1.13;;;;;;;15.81;67.38;100751.13;5034240;28;20033;-86
2022/05/15 00:37:52;;;;;;;5.38;1.60;;;;;;;15.74;66.52;100742.88;5034195;28;20064;-87
2022/05/15 00:40:19;;;;;;;5.90;1.58;;;;;;;15.43;67.57;100753.34;5034453;28;20025;-86
2022/05/15 00:42:45;;;;;;;4.45;1.40;;;;;;;15.54;66.88;100756.91;5033831;28;20036;-86
2022/05/15 00:45:12;;;;;;;3.92;1.20;;;;;;;15.52;68.14;100748.25;5033910;28;20384;-86
2022/05/15 00:47:40;;;;;;;3.25;0.85;;;;;;;15.63;65.92;100753.50;5033394;28;20028;-87
2022/05/15 00:50:09;;;;;;;3.83;1.55;;;;;;;15.47;66.12;100757.41;5033590;28;20037;-86
2022/05/15 00:52:39;;;;;;;3.05;1.08;;;;;;;15.49;69.02;100761.75;5033551;28;20029;-86
2022/05/15 00:55:09;;;;;;;3.03;1.17;;;;;;;15.42;66.86;100764.06;5032765;28;20030;-87
2022/05/15 00:57:38;;;;;;;3.17;1.17;;;;;;;15.44;67.23;100743.59;5033616;28;20029;-86
2022/05/15 01:00:07;;;;;;;2.60;1.50;;;;;;;15.44;67.58;100772.69;5033372;28;20018;-86
2022/05/15 01:02:37;;;;;;;4.18;1.70;;;;;;;15.40;67.25;100772.13;5033113;28;20116;-86
2022/05/15 01:05:04;;;;;;;5.13;2.15;;;;;;;15.31;67.94;100757.00;5033324;28;20055;-86
2022/05/15 01:07:29;;;;;;;4.35;1.50;;;;;;;15.20;68.00;100728.78;5033032;28;20407;-86
2022/05/15 01:09:55;;;;;;;5.88;1.45;;;;;;;15.28;67.90;100738.72;5033121;28;20025;-86
2022/05/15 01:12:21;;;;;;;5.22;1.52;;;;;;;15.17;67.54;100744.09;5033126;28;20036;-86
2022/05/15 01:14:48;;;;;;;5.75;1.10;;;;;;;15.22;67.85;100742.72;5032900;28;20404;-86
2022/05/15 01:17:14;;;;;;;4.10;1.33;;;;;;;15.21;66.87;100727.00;5031706;28;20030;-86
2022/05/15 01:19:41;;;;;;;4.72;1.30;;;;;;;15.25;68.10;100721.31;5032868;28;20096;-86
2022/05/15 01:22:10;;;;;;;3.67;1.25;;;;;;;15.30;68.80;100696.28;5032576;28;20030;-86
2022/05/15 01:24:36;;;;;;;2.83;1.30;;;;;;;14.99;67.83;100690.91;5032300;28;20029;-86
2022/05/15 01:27:05;;;;;;;3.13;1.30;;;;;;;14.98;67.16;100674.19;5032675;28;20044;-86
2022/05/15 01:29:34;;;;;;;3.45;1.30;;;;;;;14.84;67.77;100642.75;5032211;28;20060;-87
2022/05/15 01:32:00;;;;;;;2.88;1.17;;;;;;;14.32;69.07;100654.88;5032136;28;20021;-86
2022/05/15 01:34:26;;;;;;;1.45;0.77;;;;;;;14.67;69.32;100652.91;5032097;28;20029;-86
2022/05/15 01:36:52;;;;;;;2.65;1.33;;;;;;;14.43;68.59;100663.59;5032236;28;20029;-87
2022/05/15 01:39:18;;;;;;;3.97;1.10;;;;;;;14.58;69.42;100664.22;5032387;28;20029;-86
2022/05/15 01:41:43;;;;;;;4.63;0.85;;;;;;;14.28;68.12;100639.28;5032108;28;20033;-86
2022/05/15 01:44:08;;;;;;;1.75;0.77;;;;;;;14.51;68.48;100652.41;5032170;28;20053;-86
2022/05/15 01:46:34;;;;;;;2.50;1.70;;;;;;;14.62;68.60;100655.06;5032040;28;20036;-86
2022/05/15 01:49:03;;;;;;;2.03;0.90;;;;;;;14.55;68.63;100648.56;5032026;28;20026;-86
2022/05/15 01:51:28;;;;;;;1.60;0.75;;;;;;;14.63;68.88;100646.19;5030539;28;20361;-86
2022/05/15 01:53:54;;;;;;;2.00;0.57;;;;;;;14.34;64.98;100629.19;5032142;28;20301;-86
2022/05/15 01:56:19;;;;;;;1.13;0.52;;;;;;;14.57;63.26;100635.25;5032059;28;20543;-86
2022/05/15 01:58:45;;;;;;;1.33;0.55;;;;;;;14.47;62.48;100635.13;5032051;28;20029;-85
2022/05/15 02:01:10;;;;;;;1.65;0.63;;;;;;;14.57;62.35;100651.13;5032188;28;20062;-86
2022/05/15 02:03:36;;;;;;;1.40;0.47;;;;;;;14.66;63.07;100648.56;5032329;28;20322;-85
2022/05/15 02:06:02;;;;;;;2.13;0.70;;;;;;;14.72;62.65;100655.16;5032111;28;20064;-85
2022/05/15 02:08:33;;;;;;;5.05;0.70;;;;;;;14.67;64.84;100676.69;5031940;28;20025;-86
2022/05/15 02:10:59;;;;;;;1.67;0.82;;;;;;;14.79;66.66;100692.50;5031763;28;20123;-85
2022/05/15 02:13:25;;;;;;;1.17;0.68;;;;;;;14.74;65.66;100698.16;5032115;28;20375;-85
2022/05/15 02:15:50;;;;;;;6.38;0.68;;;;;;;14.76;66.71;100713.91;5034860;28;20026;-86
2022/05/15 02:18:16;;;;;;;4.53;0.80;;;;;;;14.63;67.76;100725.47;5035594;28;20559;-86
2022/05/15 02:20:41;;;;;;;4.85;1.08;;;;;;;14.58;66.86;100740.84;5035844;28;20024;-86
2022/05/15 02:23:08;;;;;;;3.08;0.77;;;;;;;14.51;67.87;100739.59;5035867;28;20037;-85
2022/05/15 02:25:33;;;;;;;3.30;0.85;;;;;;;14.65;69.36;100726.19;5034389;28;20104;-86
2022/05/15 02:27:59;;;;;;;3.10;0.90;;;;;;;14.51;69.26;100725.56;5035423;28;20104;-86
2022/05/15 02:30:25;;;;;;;4.00;1.10;;;;;;;14.66;69.78;100727.84;5035605;28;20079;-86
2022/05/15 02:32:51;;;;;;;3.97;0.98;;;;;;;14.41;69.70;100717.53;5035616;28;20480;-85
2022/05/15 02:35:17;;;;;;;4.32;1.50;;;;;;;13.88;70.69;100718.97;5035580;28;20052;-85
2022/05/15 02:37:44;;;;;;;3.47;0.95;;;;;;;14.33;70.01;100718.13;5035383;28;20035;-86
2022/05/15 02:40:12;;;;;;;2.75;0.85;;;;;;;14.52;68.95;100717.53;5035501;28;20079;-85
2022/05/15 02:42:38;;;;;;;4.05;0.80;;;;;;;14.57;69.03;100699.50;5035041;28;20029;-85
2022/05/15 02:45:05;;;;;;;2.47;0.80;;;;;;;14.65;69.86;100691.84;5035061;28;20036;-86
2022/05/15 02:47:30;;;;;;;1.20;0.70;;;;;;;14.52;69.36;100677.91;5034961;28;20037;-85
2022/05/15 02:52:39;;;;;;;2.13;0.80;;;;;;;14.60;69.62;100651.72;5034898;28;20059;-85
2022/05/15 02:55:05;;;;;;;6.07;1.38;;;;;;;14.48;69.36;100637.66;5034829;28;20494;-85
2022/05/15 02:57:31;;;;;;;5.20;1.30;;;;;;;14.48;68.02;100631.53;5033551;28;20029;-85
2022/05/15 02:59:56;;;;;;;4.47;1.60;;;;;;;14.50;67.76;100612.94;5034439;28;20028;-85
2022/05/15 03:02:21;;;;;;;9.75;2.00;;;;;;;14.51;66.52;100615.44;5034656;28;20030;-85
2022/05/15 03:04:49;;;;;;;4.75;1.85;;;;;;;14.46;68.86;100613.16;5034470;28;20534;-85
2022/05/15 03:07:14;;;;;;;4.00;1.65;;;;;;;14.52;68.94;100613.66;5034763;28;20029;-85
2022/05/15 03:09:40;;;;;;;10.48;1.67;;;;;;;14.31;68.85;100592.44;5034594;28;20361;-85
2022/05/15 03:12:05;;;;;;;3.92;1.83;;;;;;;14.55;69.23;100608.09;5034583;28;20033;-85
2022/05/15 03:14:31;;;;;;;6.40;1.92;;;;;;;14.64;67.65;100617.97;5034669;28;20100;-85
2022/05/15 03:16:56;;;;;;;4.53;1.40;;;;;;;14.72;67.96;100625.25;5034147;28;20083;-85
2022/05/15 03:19:22;;;;;;;5.40;1.90;;;;;;;14.75;68.08;100635.56;5034512;28;20290;-85
2022/05/15 03:21:47;;;;;;;5.50;2.05;;;;;;;14.75;68.40;100638.22;5033107;28;20032;-85
2022/05/15 03:24:13;;;;;;;4.28;1.98;;;;;;;14.85;68.00;100644.44;5034116;28;20063;-85
2022/05/15 03:26:44;;;;;;;3.80;1.52;;;;;;;14.83;68.73;100634.00;5034330;28;20037;-85
2022/05/15 03:29:12;;;;;;;4.43;2.00;;;;;;;14.77;69.87;100629.22;5034368;28;20025;-85
2022/05/15 03:31:39;;;;;;;8.63;2.38;;;;;;;14.68;67.83;100628.16;5034112;28;20056;-85
2022/05/15 03:34:06;;;;;;;9.70;2.88;;;;;;;14.71;66.61;100613.88;5034296;28;20028;-85
2022/05/15 03:36:32;;;;;;;10.65;2.53;;;;;;;14.83;67.08;100596.13;5034021;28;20475;-85
2022/05/15 03:38:58;;;;;;;7.15;2.38;;;;;;;14.75;67.31;100585.34;5034204;28;20025;-85
2022/05/15 03:41:24;;;;;;;10.18;2.72;;;;;;;14.75;67.86;100578.28;5034050;28;20498;-85
2022/05/15 03:43:49;;;;;;;6.82;2.50;;;;;;;14.70;68.04;100580.44;5034201;28;20033;-85
2022/05/15 03:46:14;;;;;;;6.70;3.08;;;;;;;14.66;68.38;100585.16;5033464;28;20029;-85
2022/05/15 03:48:40;;;;;;;10.30;3.25;;;;;;;14.53;68.54;100571.22;5034043;28;20119;-85
2022/05/15 03:51:05;;;;;;;13.65;3.85;;;;;;;14.55;69.39;100574.56;5033919;28;20057;-85
2022/05/15 03:53:32;;;;;;;10.85;4.05;;;;;;;14.74;69.19;100578.41;5034321;28;20029;-85
2022/05/15 03:55:58;;;;;;;13.88;4.25;;;;;;;14.56;69.85;100584.22;5034035;28;20049;-85
2022/05/15 03:58:29;;;;;;;7.50;3.10;;;;;;;14.75;69.74;100588.84;5033800;28;20028;-85
2022/05/15 04:00:55;;;;;;;12.63;3.77;;;;;;;14.56;70.13;100578.94;5033800;28;20025;-85
2022/05/15 04:03:21;;;;;;;14.57;3.90;;;;;;;14.54;70.32;100578.19;5033857;28;20387;-85
2022/05/15 04:05:47;;;;;;;10.75;3.80;;;;;;;14.47;70.93;100590.22;5033535;28;20030;-85
2022/05/15 04:08:13;;;;;;;13.27;4.00;;;;;;;14.39;71.15;100590.00;5033795;28;20118;-85
2022/05/15 04:10:38;;;;;;;8.48;3.55;;;;;;;14.59;70.56;100577.84;5032065;28;20433;-85
2022/05/15 04:13:04;;;;;;;13.75;5.28;;;;;;;14.67;71.21;100568.34;5033401;28;20030;-85
2022/05/15 04:15:31;;;;;;;12.13;4.85;;;;;;;14.70;71.07;100559.31;5033210;28;20021;-85
2022/05/15 04:17:56;;;;;;;16.20;4.30;;;;;;;14.67;71.67;100552.47;5033349;28;20029;-85
2022/05/15 04:20:24;;;;;;;15.15;4.22;;;;;;;14.61;72.36;100573.28;5033559;28;20060;-85
2022/05/15 04:22:50;;;;;;;12.02;4.40;;;;;;;14.62;72.81;100578.44;5033227;28;20438;-85
2022/05/15 04:25:16;;;;;;;10.25;4.10;;;;;;;14.71;73.14;100557.50;5033164;28;20076;-85
2022/05/15 04:27:42;;;;;;;14.52;5.38;;;;;;;14.63;72.75;100553.72;5033161;28;20033;-86
2022/05/15 04:30:10;;;;;;;13.25;5.35;;;;;;;14.27;74.89;100545.13;5033142;28;20060;-86
2022/05/15 04:32:36;;;;;;;9.68;4.75;;;;;;;14.44;75.22;100535.00;5033380;28;20022;-86
2022/05/15 04:35:02;;;;;;;14.50;5.40;;;;;;;14.46;75.46;100533.09;5032337;28;20380;-85
2022/05/15 04:37:27;;;;;;;13.95;5.10;;;;;;;14.46;75.36;100538.38;5033056;28;20034;-86
2022/05/15 04:39:53;;;;;;;16.08;5.25;;;;;;;14.54;75.40;100541.22;5031431;28;20468;-86
2022/05/15 04:42:18;;;;;;;13.95;5.60;;;;;;;14.53;74.95;100539.53;5032365;28;20026;-85
2022/05/15 04:44:45;;;;;;;10.27;4.97;;;;;;;14.47;75.85;100547.94;5032855;28;20029;-85
2022/05/15 04:47:11;;;;;;;12.20;4.78;;;;;;;14.41;76.03;100554.56;5032778;28;20061;-85
2022/05/15 04:49:36;;;;;;;13.90;4.68;;;;;;;14.59;74.42;100541.72;5032126;28;20053;-85
2022/05/15 04:52:01;;;;;;;12.68;5.03;;;;;;;14.62;74.86;100517.66;5032647;28;20108;-85
2022/05/15 04:54:27;;;;;;;8.07;4.03;;;;;;;14.61;74.54;100516.00;5032638;28;20426;-85
2022/05/15 04:56:52;;;;;;;14.52;5.18;;;;;;;14.56;74.67;100515.53;5032695;28;20080;-85
2022/05/15 04:59:17;;;;;;;10.30;4.20;;;;;;;14.72;73.89;100511.63;5032804;28;20105;-85
2022/05/15 05:01:43;;;;;;;13.70;5.25;;;;;;;14.79;73.71;100513.63;5032808;28;20537;-86
2022/05/15 05:04:08;;;;;;;11.52;4.53;;;;;;;14.68;73.72;100525.06;5032563;28;20021;-85
2022/05/15 05:06:34;;;;;;;13.13;4.35;;;;;;;14.99;72.70;100514.56;5032374;28;20040;-85
2022/05/15 05:08:59;;;;;;;9.98;4.57;;;;;;;14.51;73.61;100515.03;5032579;28;20032;-85
2022/05/15 05:11:25;;;;;;;12.57;3.78;;;;;;;14.79;72.77;100516.25;5032540;28;20036;-85
2022/05/15 05:13:50;;;;;;;11.40;3.70;;;;;;;14.92;71.69;100523.97;5032429;28;20448;-85
2022/05/15 05:16:16;;;;;;;10.98;3.88;;;;;;;14.87;72.21;100526.19;5032314;28;20475;-85
2022/05/15 05:18:42;;;;;;;11.75;4.38;;;;;;;14.95;71.33;100526.38;5032301;28;20021;-85
2022/05/15 05:21:07;;;;;;;16.38;4.13;;;;;;;15.06;71.56;100528.94;5032008;28;20028;-85
2022/05/15 05:23:33;;;;;;;10.25;3.58;;;;;;;15.20;70.81;100519.81;5032294;28;20447;-85
2022/05/15 05:25:58;;;;;;;7.55;3.38;;;;;;;15.30;70.68;100506.66;5032178;28;20131;-85
2022/05/15 05:28:24;;;;;;;13.20;4.00;;;;;;;15.30;69.53;100519.03;5032125;28;20068;-85
2022/05/15 05:30:50;;;;;;;13.48;4.38;;;;;;;15.33;69.75;100510.84;5032005;28;20095;-86
2022/05/15 05:33:16;;;;;;;7.20;3.38;;;;;;;15.39;70.02;100510.31;5030524;28;20132;-85
2022/05/15 05:35:42;;;;;;;8.85;4.20;;;;;;;15.13;70.46;100512.56;5031145;28;20140;-85
2022/05/15 05:38:08;;;;;;;7.25;3.45;;;;;;;15.42;70.02;100502.09;5031878;28;20032;-84
2022/05/15 05:40:34;;;;;;;12.02;3.85;;;;;;;15.22;71.13;100503.81;5031614;28;20496;-84
2022/05/15 05:42:59;;;;;;;15.15;5.03;;;;;;;15.53;70.92;100515.25;5030444;28;20029;-84
2022/05/15 05:45:24;;;;;;;10.48;5.07;;;;;;;15.67;70.43;100492.88;5031439;28;20033;-84
2022/05/15 05:47:50;;;;;;;13.30;4.57;;;;;;;15.40;71.36;100507.56;5030969;28;20056;-85
2022/05/15 05:50:18;;;;;;;12.52;5.10;;;;;;;15.33;72.20;100494.97;5030673;28;20429;-85
2022/05/15 05:52:44;;;;;;;10.93;4.55;;;;;;;15.40;71.71;100502.25;5031424;28;20536;-85
2022/05/15 05:55:13;;;;;;;14.55;4.35;;;;;;;15.19;72.82;100486.44;5030547;28;20033;-85
2022/05/15 05:57:40;;;;;;;16.60;5.90;;;;;;;15.65;71.25;100484.22;5031586;28;20480;-84
2022/05/15 06:00:08;;;;;;;20.65;5.57;;;;;;;15.92;70.41;100483.63;5031615;28;20388;-85
2022/05/15 06:02:34;;;;;;;13.20;5.18;;;;;;;15.91;70.80;100484.59;5031490;28;20080;-85
2022/05/15 06:04:59;;;;;;;12.80;5.22;;;;;;;15.90;71.24;100471.50;5030752;28;20033;-86
2022/05/15 06:07:27;;;;;;;15.77;4.85;;;;;;;15.87;71.40;100477.88;5031584;28;20071;-85
2022/05/15 06:09:52;;;;;;;14.63;6.45;;;;;;;15.54;72.41;100481.66;5031195;28;20503;-85
2022/05/15 06:12:20;;;;;;;15.30;5.10;;;;;;;15.80;71.75;100472.31;5031127;28;20556;-85
2022/05/15 06:14:46;;;;;;;13.40;4.97;;;;;;;15.72;71.97;100472.13;5030974;28;20027;-85
2022/05/15 06:17:11;;;;;;;15.10;5.95;;;;;;;15.83;72.10;100463.25;5030278;28;20055;-85
2022/05/15 06:19:38;;;;;;;18.35;5.32;;;;;;;15.98;71.36;100448.66;5027412;28;20060;-85
2022/05/15 06:22:03;;;;;;;11.20;5.25;;;;;;;16.08;70.90;100443.34;5030958;28;20026;-85
2022/05/15 06:24:29;;;;;;;14.88;5.00;;;;;;;15.90;71.28;100451.16;5030839;28;20025;-85
2022/05/15 06:27:02;;;;;;;10.48;4.95;;;;;;;15.72;71.73;100443.00;5026234;28;20138;-85
2022/05/15 06:29:28;;;;;;;10.90;4.97;;;;;;;15.86;71.47;100439.16;5030989;28;20018;-85
2022/05/15 06:31:53;;;;;;;12.48;5.45;;;;;;;15.97;70.98;100440.84;5030759;28;20038;-85
2022/05/15 06:34:19;;;;;;;11.63;5.22;;;;;;;16.01;70.99;100444.88;5029702;28;20033;-84
2022/05/15 06:36:44;;;;;;;16.08;4.35;;;;;;;16.29;70.54;100450.31;5025347;28;20055;-85
2022/05/15 06:39:10;;;;;;;12.82;4.20;;;;;;;16.28;70.03;100453.97;5020839;28;20034;-84
2022/05/15 06:41:36;;;;;;;16.52;6.22;;;;;;;16.17;70.31;100442.53;5006218;28;20072;-84
2022/05/15 06:44:02;;;;;;;12.38;4.60;;;;;;;16.33;70.45;100439.31;5019509;28;20443;-84
2022/05/15 06:46:28;;;;;;;13.60;4.97;;;;;;;16.55;69.36;100435.50;5025796;28;20049;-85
2022/05/15 06:48:53;;;;;;;15.27;4.85;;;;;;;16.58;68.70;100421.97;5025430;28;20030;-84
2022/05/15 06:51:19;;;;;;;15.43;5.40;;;;;;;16.36;69.76;100427.59;5025585;28;20045;-84
2022/05/15 06:53:49;;;;;;;11.38;4.38;;;;;;;16.61;68.45;100419.03;5024842;28;20048;-84
2022/05/15 06:59:02;;;;;;;14.68;5.20;;;;;;;16.89;68.16;100416.47;5028308;28;20037;-84
2022/05/15 07:01:28;;;;;;;8.13;4.38;;;;;;;16.75;67.95;100438.97;5028782;28;20116;-84
2022/05/15 07:03:53;;;;;;;12.30;5.07;;;;;;;17.57;66.10;100417.97;5028529;28;20029;-85
2022/05/15 07:06:19;;;;;;;10.48;4.70;;;;;;;18.27;64.48;100417.34;5027840;28;20029;-85
2022/05/15 07:08:44;;;;;;;10.57;4.20;;;;;;;19.39;60.73;100409.34;5029069;28;20104;-85
2022/05/15 07:11:13;;;;;;;12.63;4.32;;;;;;;19.01;61.60;100405.34;5030524;28;20057;-86
2022/05/15 07:13:39;;;;;;;12.25;3.70;;;;;;;18.77;62.07;100406.88;5031179;28;20527;-85
2022/05/15 07:16:05;;;;;;;10.07;3.83;;;;;;;18.57;62.11;100392.13;5033293;28;20037;-85
2022/05/15 07:18:31;;;;;;;10.40;3.80;;;;;;;20.30;58.42;100406.81;5033010;28;20113;-85
2022/05/15 07:20:56;;;;;;;12.18;4.20;;;;;;;21.29;54.05;100381.56;5029493;28;20082;-86
2022/05/15 07:23:22;;;;;;;10.18;4.20;;;;;;;20.75;56.31;100370.75;5029080;28;20543;-85
2022/05/15 07:25:49;;;;;;;11.15;3.85;;;;;;;22.91;51.61;100370.75;5032737;28;20526;-84
2022/05/15 07:28:14;;;;;;;9.23;3.13;;;;;;;24.09;47.55;100366.91;5020219;28;20060;-85
2022/05/15 07:30:40;;;;;;;10.93;3.83;;;;;;;25.56;44.70;100365.03;5032358;28;20057;-87
2022/05/15 07:33:06;;;;;;;14.90;5.03;;;;;;;25.99;44.23;100359.31;5031338;28;20033;-88
2022/05/15 07:35:32;;;;;;;7.20;2.88;;;;;;;26.34;43.76;100366.31;5033232;28;20033;-86
2022/05/15 07:37:57;;;;;;;6.80;2.20;;;;;;;27.06;41.89;100373.44;5032218;28;20087;-87
2022/05/15 07:40:23;;;;;;;13.02;3.03;;;;;;;26.28;43.06;100374.22;5032782;28;20395;-85
2022/05/15 07:42:48;;;;;;;7.05;2.53;;;;;;;26.19;44.08;100364.69;5033377;28;20084;-84
2022/05/15 07:45:15;;;;;;;5.95;2.42;;;;;;;28.81;40.37;100381.94;5033554;28;20431;-85
2022/05/15 07:47:41;;;;;;;7.38;2.67;;;;;;;29.41;38.22;100375.81;5033788;28;20060;-85
2022/05/15 07:50:08;;;;;;;7.70;3.00;;;;;;;29.87;38.31;100368.91;5033338;28;20036;-86
2022/05/15 07:52:33;;;;;;;10.73;3.42;;;;;;;27.95;39.00;100367.38;5033233;28;20041;-85
2022/05/15 07:54:59;;;;;;;6.82;2.85;;;;;;;24.91;44.16;100383.38;5033226;28;20399;-85
2022/05/15 07:57:24;;;;;;;9.60;3.28;;;;;;;25.64;43.27;100372.06;5032172;28;20084;-86
2022/05/15 07:59:50;;;;;;;7.50;2.47;;;;;;;27.85;40.37;100378.63;5034356;28;20036;-86
2022/05/15 08:02:16;;;;;;;9.75;2.70;;;;;;;28.77;38.81;100386.97;5031488;28;20025;-83
2022/05/15 08:10:10;;;;;;;7.95;2.85;;;;;;;27.75;41.23;100378.28;5030991;28;20036;-83
2022/05/15 08:12:35;;;;;;;6.88;2.70;;;;;;;26.06;43.68;100378.13;5032279;28;20029;-83
2022/05/15 08:15:03;;;;;;;17.85;3.78;;;;;;;24.38;47.66;100389.19;5032432;28;20464;-84
2022/05/15 08:17:28;;;;;;;8.88;3.28;;;;;;;23.82;48.37;100389.16;5032212;28;20072;-83
2022/05/15 08:25:21;;;;;;;6.75;3.22;;;;;;;22.52;52.27;100387.88;5032407;28;20032;-83
2022/05/15 08:27:46;;;;;;;8.50;3.35;;;;;;;22.30;52.67;100400.31;5048358;28;20026;-82
2022/05/15 08:30:13;;;;;;;10.55;3.53;;;;;;;21.50;54.45;100396.16;5032225;28;20479;-83
2022/05/15 08:32:38;;;;;;;12.73;4.13;;;;;;;21.48;54.78;100392.84;5031555;28;20021;-82
2022/05/15 08:35:04;;;;;;;9.65;3.53;;;;;;;21.18;56.10;100393.44;5032875;28;20106;-83
2022/05/15 08:37:30;;;;;;;10.13;3.25;;;;;;;20.62;56.79;100394.47;5031369;28;20052;-85
2022/05/15 08:39:56;;;;;;;8.90;3.58;;;;;;;20.58;57.81;100381.44;5032385;28;20026;-86
2022/05/15 08:42:29;;;;;;;11.25;3.70;;;;;;;20.44;57.80;100376.81;5032420;28;20108;-85
2022/05/15 08:44:59;;;;;;;10.52;3.53;;;;;;;20.78;56.67;100381.94;5032598;28;20025;-85
2022/05/15 08:47:33;;;;;;;11.05;3.60;;;;;;;20.40;57.54;100380.84;5032337;28;20061;-85
2022/05/15 08:50:03;;;;;;;8.82;3.00;;;;;;;20.75;56.65;100379.63;5031744;28;20036;-84
2022/05/15 08:52:39;;;;;;;10.35;4.38;;;;;;;20.79;56.19;100366.75;5028278;28;20029;-85
2022/05/15 08:55:12;;;;;;;9.25;3.05;;;;;;;21.16;55.68;100383.97;5026621;28;20022;-84
2022/05/15 08:57:55;;;;;;;10.13;3.55;;;;;;;20.95;56.47;100382.72;5027247;28;20132;-83
2022/05/15 09:00:25;;;;;;;9.30;3.60;;;;;;;20.80;56.11;100371.91;5031601;28;20033;-83
2022/05/15 09:02:51;;;;;;;9.95;3.20;;;;;;;20.91;55.46;100362.72;5022339;28;20116;-83
2022/05/15 09:05:17;;;;;;;10.45;3.78;;;;;;;20.75;56.37;100368.09;5029513;28;20135;-83
2022/05/15 09:08:00;;;;;;;9.98;4.32;;;;;;;20.63;56.95;100364.13;5031911;28;20079;-83
2022/05/15 09:10:36;;;;;;;11.32;3.83;;;;;;;20.32;57.58;100367.47;5031218;28;20029;-83
2022/05/15 09:13:20;;;;;;;8.45;3.47;;;;;;;20.30;58.45;100369.50;5027256;28;20017;-83
2022/05/15 09:16:00;;;;;;;12.13;3.90;;;;;;;20.38;57.83;100369.50;5024251;28;20044;-86
2022/05/15 09:18:27;;;;;;;9.25;3.88;;;;;;;20.21;58.21;100364.16;5027570;28;20028;-83
2022/05/15 09:20:53;;;;;;;10.45;3.35;;;;;;;20.34;58.02;100376.16;5031276;28;20041;-83
2022/05/15 09:23:21;;;;;;;11.15;3.53;;;;;;;20.50;56.99;100376.13;5031360;28;20036;-83
2022/05/15 09:25:58;;;;;;;16.17;4.13;;;;;;;20.28;57.99;100377.69;5031794;28;20029;-83
2022/05/15 09:28:27;;;;;;;10.50;4.40;;;;;;;20.19;58.13;100368.84;5032106;28;20040;-83
2022/05/15 09:30:57;;;;;;;12.18;4.18;;;;;;;20.25;58.08;100361.19;5031764;28;20017;-83
2022/05/15 09:33:31;;;;;;;11.60;4.40;;;;;;;20.82;56.60;100358.41;5030728;28;20049;-83
2022/05/15 09:36:24;;;;;;;10.70;3.70;;;;;;;20.94;56.90;100362.34;5030303;28;20746;-83
2022/05/15 09:39:07;;;;;;;9.38;4.28;;;;;;;21.45;55.50;100353.16;5030121;28;20033;-83
2022/05/15 09:44:29;;;;;;;8.98;3.42;;;;;;;21.99;53.43;100358.41;5028378;28;20029;-83
2022/05/15 09:47:03;;;;;;;7.80;3.58;;;;;;;22.34;53.07;100348.94;5029614;28;20395;-83
2022/05/15 09:49:34;;;;;;;7.50;3.20;;;;;;;22.74;51.86;100340.63;5029620;28;20789;-83
2022/05/15 09:52:06;;;;;;;8.93;3.20;;;;;;;23.58;50.59;100342.03;5027911;28;20033;-83
2022/05/15 09:54:36;;;;;;;10.57;2.95;;;;;;;25.84;45.47;100346.03;5029177;28;20101;-83
2022/05/15 09:57:13;;;;;;;9.93;3.22;;;;;;;26.02;44.72;100336.53;5029299;28;20061;-83
2022/05/15 09:59:39;;;;;;;8.93;3.47;;;;;;;25.19;46.17;100334.91;5026631;28;21604;-84
2022/05/15 10:02:05;;;;;;;7.72;2.97;;;;;;;24.48;46.77;100344.03;5027034;28;20057;-83
2022/05/15 10:04:51;;;;;;;9.00;3.28;;;;;;;23.80;49.03;100334.88;5028703;28;20068;-83
2022/05/15 10:07:44;;;;;;;5.13;2.55;;;;;;;23.39;50.17;100338.97;5036772;28;20419;-83
2022/05/15 10:10:21;;;;;;;7.03;3.85;;;;;;;23.01;50.13;100335.63;5020104;28;20487;-83
2022/05/15 10:12:52;;;;;;;10.38;3.42;;;;;;;22.16;51.72;100341.22;5014599;28;20030;-83
2022/05/15 10:15:19;;;;;;;9.83;3.57;;;;;;;21.66;53.44;100334.59;5029058;28;20021;-83
2022/05/15 10:17:58;;;;;;;8.18;2.70;;;;;;;21.56;53.68;100334.88;5024369;28;20037;-83
2022/05/15 10:20:29;;;;;;;6.10;3.10;;;;;;;21.85;53.36;100341.31;5027663;28;20124;-83
2022/05/15 10:23:13;;;;;;;9.73;3.17;;;;;;;22.13;52.25;100336.22;5032613;28;20026;-83
2022/05/15 10:25:47;;;;;;;10.45;3.35;;;;;;;21.10;54.67;100357.97;5028188;28;20035;-83
2022/05/15 10:28:46;;;;;;;8.77;3.00;;;;;;;21.78;54.31;100367.94;5025220;28;20026;-82
2022/05/15 10:31:21;;;;;;;6.68;2.88;;;;;;;21.37;54.50;100378.84;5029182;28;20033;-83
2022/05/15 10:33:53;;;;;;;10.77;3.67;;;;;;;21.31;54.99;100373.38;5031784;28;20025;-83
2022/05/15 10:36:33;;;;;;;7.25;3.35;;;;;;;20.95;56.33;100377.38;5032480;28;20052;-83
2022/05/15 10:39:07;;;;;;;9.45;3.38;;;;;;;21.05;56.38;100395.88;5018084;28;20156;-83
2022/05/15 10:41:58;;;;;;;8.38;3.08;;;;;;;20.75;57.37;100419.66;5031308;28;20391;-82
2022/05/15 10:44:26;;;;;;;10.20;3.88;;;;;;;20.67;57.31;100424.97;5030856;28;20025;-83
2022/05/15 10:46:57;;;;;;;10.88;3.40;;;;;;;20.64;57.73;100424.50;5024943;28;20377;-82
2022/05/15 10:49:33;;;;;;;6.95;3.13;;;;;;;20.94;57.29;100420.25;5029575;28;20021;-82
2022/05/15 10:52:10;;;;;;;9.93;4.07;;;;;;;20.35;59.06;100409.81;5032788;28;20087;-82
2022/05/15 10:57:38;;;;;;;11.82;4.75;;;;;;;19.77;64.77;100390.31;5020082;28;20052;-84
2022/05/15 11:00:20;;;;;;;22.75;6.00;;;;;;;19.51;66.96;100374.41;5049251;28;20025;-85
2022/05/15 11:03:15;;;;;;;;;;;;;;;19.09;69.03;100376.13;5048732;28;20031;-86
2022/05/15 11:06:05;;;;;;;13.00;4.80;;;;;;;19.20;68.58;100378.50;4997300;28;19922;-85
2022/05/15 11:08:37;;;;;;;17.38;5.78;;;;;;;19.26;70.67;100371.69;5034139;28;20434;-86
2022/05/15 11:11:21;;;;;;;17.67;6.45;;;;;;;19.30;69.79;100362.38;5033515;28;20025;-87
2022/05/15 11:14:31;;;;;;;17.05;5.93;;;;;;;20.06;68.70;100365.00;5032013;28;20053;-85
2022/05/15 11:17:15;;;;;;;11.50;5.43;;;;;;;20.09;68.76;100373.50;5034378;28;20046;-88
2022/05/15 11:19:47;;;;;;;11.75;5.68;;;;;;;19.55;68.44;100352.63;5017149;28;20029;-87
2022/05/15 11:22:31;;;;;;;14.32;6.45;;;;;;;19.61;68.82;100365.28;5027059;28;20045;-85
2022/05/15 11:25:03;;;;;;;12.68;5.55;;;;;;;19.85;69.67;100357.53;5031342;28;20124;-85
2022/05/15 11:27:49;;;;;;;14.85;6.63;;;;;;;19.88;67.99;100370.50;5033400;28;20376;-85
2022/05/15 11:30:22;;;;;;;11.02;5.65;;;;;;;19.57;69.78;100360.47;5033809;28;20037;-84
2022/05/15 11:32:54;;;;;;;19.25;6.35;;;;;;;19.70;70.81;100352.81;5032119;28;20391;-84
2022/05/15 11:35:20;;;;;;;10.65;5.40;;;;;;;19.54;69.56;100345.63;5031956;28;20049;-84
2022/05/15 11:38:04;;;;;;;11.48;5.00;;;;;;;19.87;68.94;100351.03;5033657;28;20195;-84
2022/05/15 11:40:39;;;;;;;10.13;4.85;;;;;;;20.17;67.79;100362.84;5028859;28;20030;-83
2022/05/15 11:43:25;;;;;;;10.75;5.25;;;;;;;19.85;67.97;100362.88;5033587;28;20026;-85
2022/05/15 11:45:52;;;;;;;10.80;4.57;;;;;;;19.55;68.88;100381.06;5032754;28;20017;-84
2022/05/15 11:48:21;;;;;;;11.38;4.70;;;;;;;19.24;69.53;100373.69;5031463;28;20029;-84
2022/05/15 11:50:57;;;;;;;10.25;4.88;;;;;;;19.15;69.50;100364.81;5021824;28;20018;-84